Time;durP1;ratioP1;P1;durP2;ratioP2;P2;SDS_P1;SDS_P2;PMS_P1;PMS_P2;Temp;Humidity;BMP_temperature;BMP_pressure;BME280_temperature;BME280_humidity;BME280_pressure;Samples;Min_cycle;Max_cycle;Signal;HPM_P1;HPM_P2
2022/10/05 00:01:25;;;;;;;0.20;0.20;;;9.70;99.90;;;;;;5043966;28;20185;-62
2022/10/05 00:03:57;;;;;;;0.20;0.20;;;9.70;99.90;;;;;;5047549;28;20221;-62
2022/10/05 00:06:24;;;;;;;0.00;0.00;;;9.70;99.90;;;;;;5039209;28;20182;-62
2022/10/05 00:08:50;;;;;;;0.00;0.00;;;9.70;99.90;;;;;;5042676;28;20192;-63
2022/10/05 00:11:16;;;;;;;0.10;0.10;;;9.70;99.90;;;;;;5045553;28;20181;-62
2022/10/05 00:13:42;;;;;;;0.52;0.15;;;9.60;99.90;;;;;;5038739;28;20543;-62
2022/10/05 00:16:19;;;;;;;0.00;0.00;;;9.60;99.90;;;;;;5042122;28;20185;-62
2022/10/05 00:18:48;;;;;;;0.10;0.10;;;9.60;99.90;;;;;;5032892;28;20228;-62
2022/10/05 00:21:18;;;;;;;0.00;0.00;;;9.60;99.90;;;;;;5033083;28;20232;-62
2022/10/05 00:23:44;;;;;;;0.00;0.00;;;9.60;99.90;;;;;;5033899;28;20656;-62
2022/10/05 00:26:19;;;;;;;0.00;0.00;;;9.60;99.90;;;;;;5039007;28;20204;-62
2022/10/05 00:28:45;;;;;;;0.00;0.00;;;9.60;99.90;;;;;;5039679;28;20189;-62
2022/10/05 00:31:31;;;;;;;0.00;0.00;;;9.60;99.90;;;;;;5039836;28;20182;-63
2022/10/05 00:33:57;;;;;;;0.10;0.10;;;9.50;99.90;;;;;;5047870;28;20648;-62
2022/10/05 00:36:25;;;;;;;0.00;0.00;;;9.50;99.90;;;;;;5047142;28;20177;-62
2022/10/05 00:38:51;;;;;;;0.00;0.00;;;9.50;99.90;;;;;;5046619;28;20213;-62
2022/10/05 00:41:22;;;;;;;0.10;0.10;;;9.50;99.90;;;;;;5039727;28;20236;-62
2022/10/05 00:44:09;;;;;;;0.00;0.00;;;9.50;99.90;;;;;;5034709;28;20186;-62
2022/10/05 00:46:50;;;;;;;0.00;0.00;;;9.50;99.90;;;;;;5036470;28;20235;-62
2022/10/05 00:49:26;;;;;;;0.13;0.10;;;9.50;99.90;;;;;;5035618;28;20684;-62
2022/10/05 00:52:19;;;;;;;0.00;0.00;;;9.40;99.90;;;;;;5045831;28;20208;-62
2022/10/05 00:54:54;;;;;;;0.00;0.00;;;9.40;99.90;;;;;;5017489;28;20181;-62
2022/10/05 00:57:33;;;;;;;0.00;0.00;;;9.40;99.90;;;;;;5049199;28;20177;-62
2022/10/05 01:00:14;;;;;;;0.08;0.08;;;9.40;99.90;;;;;;5046365;28;20256;-62
2022/10/05 01:03:00;;;;;;;0.03;0.03;;;9.30;99.90;;;;;;5042809;28;20604;-62
2022/10/05 01:06:08;;;;;;;0.03;0.03;;;9.30;99.90;;;;;;5016974;28;20177;-62
2022/10/05 01:09:15;;;;;;;0.00;0.00;;;9.20;99.90;;;;;;5022371;28;20189;-62
2022/10/05 01:12:04;;;;;;;0.00;0.00;;;9.20;99.90;;;;;;5028400;28;20225;-62
2022/10/05 01:15:11;;;;;;;0.00;0.00;;;9.20;99.90;;;;;;5047175;28;20174;-62
2022/10/05 01:17:45;;;;;;;0.10;0.10;;;9.10;99.90;;;;;;5043804;28;20282;-62
2022/10/05 01:20:20;;;;;;;0.00;0.00;;;9.10;99.90;;;;;;5049781;28;20709;-62
2022/10/05 01:23:01;;;;;;;0.20;0.20;;;9.10;99.90;;;;;;5039934;28;20177;-62
2022/10/05 01:25:48;;;;;;;0.05;0.05;;;9.10;99.90;;;;;;5033887;28;20181;-62
2022/10/05 01:28:34;;;;;;;0.00;0.00;;;9.10;99.90;;;;;;5038490;28;20177;-62
2022/10/05 01:31:14;;;;;;;0.10;0.10;;;9.10;99.90;;;;;;5047359;28;20702;-62
2022/10/05 01:33:49;;;;;;;0.03;0.03;;;9.10;99.90;;;;;;5033412;28;20641;-62
2022/10/05 01:36:33;;;;;;;0.10;0.10;;;9.10;99.90;;;;;;5035141;28;20252;-62
2022/10/05 01:39:06;;;;;;;0.10;0.10;;;9.00;99.90;;;;;;5049249;28;20695;-62
2022/10/05 01:41:54;;;;;;;0.00;0.00;;;9.00;99.90;;;;;;5048042;28;20248;-62
2022/10/05 01:44:37;;;;;;;0.00;0.00;;;9.00;99.90;;;;;;5046484;28;20171;-62
2022/10/05 01:47:17;;;;;;;0.15;0.15;;;9.00;99.90;;;;;;5029890;28;20188;-62
2022/10/05 01:50:03;;;;;;;0.00;0.00;;;8.90;99.90;;;;;;5051926;28;20185;-62
2022/10/05 01:52:47;;;;;;;0.00;0.00;;;8.90;99.90;;;;;;5039309;28;20177;-62
2022/10/05 01:55:55;;;;;;;0.10;0.10;;;8.90;99.90;;;;;;5051135;28;20182;-62
2022/10/05 01:58:45;;;;;;;0.00;0.00;;;8.80;99.90;;;;;;5052303;28;20676;-62
2022/10/05 02:01:18;;;;;;;0.00;0.00;;;8.80;99.90;;;;;;5045495;28;20534;-62
2022/10/05 02:03:55;;;;;;;0.28;0.10;;;8.80;99.90;;;;;;5049649;28;20229;-62
2022/10/05 02:06:29;;;;;;;0.25;0.25;;;8.80;99.90;;;;;;5050850;28;20208;-62
2022/10/05 02:09:04;;;;;;;0.00;0.00;;;8.80;99.90;;;;;;5050592;28;20239;-62
2022/10/05 02:11:31;;;;;;;0.00;0.00;;;8.70;99.90;;;;;;5047347;28;20166;-62
2022/10/05 02:14:01;;;;;;;0.00;0.00;;;8.70;99.90;;;;;;5042179;28;20236;-62
2022/10/05 02:16:39;;;;;;;0.00;0.00;;;8.70;99.90;;;;;;5049298;28;20197;-62
2022/10/05 02:19:17;;;;;;;2.30;0.25;;;8.70;99.90;;;;;;5045374;28;20216;-62
2022/10/05 02:21:47;;;;;;;0.43;0.30;;;8.60;99.90;;;;;;5050515;28;20178;-62
2022/10/05 02:24:20;;;;;;;0.00;0.00;;;8.60;99.90;;;;;;5022649;28;20186;-62
2022/10/05 02:26:47;;;;;;;0.00;0.00;;;8.60;99.90;;;;;;5044665;28;20611;-62
2022/10/05 02:29:14;;;;;;;0.17;0.17;;;8.50;99.90;;;;;;5050615;28;20205;-62
2022/10/05 02:31:52;;;;;;;0.00;0.00;;;8.60;99.90;;;;;;5039018;28;20182;-62
2022/10/05 02:34:39;;;;;;;0.03;0.03;;;8.50;99.90;;;;;;5042618;28;20186;-62
2022/10/05 02:37:23;;;;;;;0.00;0.00;;;8.50;99.90;;;;;;5042736;28;20601;-62
2022/10/05 02:40:10;;;;;;;0.00;0.00;;;8.50;99.90;;;;;;5044682;28;20859;-62
2022/10/05 02:42:51;;;;;;;0.60;0.43;;;8.50;99.90;;;;;;5038374;28;20189;-62
2022/10/05 02:45:45;;;;;;;0.13;0.10;;;8.40;99.90;;;;;;5045577;28;20641;-62
2022/10/05 02:48:39;;;;;;;0.00;0.00;;;8.40;99.90;;;;;;5040343;28;20534;-62
2022/10/05 02:51:28;;;;;;;0.03;0.03;;;8.30;99.90;;;;;;5051752;28;20177;-62
2022/10/05 02:54:26;;;;;;;0.00;0.00;;;8.30;99.90;;;;;;5036449;28;20193;-62
2022/10/05 02:57:21;;;;;;;0.00;0.00;;;8.30;99.90;;;;;;5035050;28;20638;-63
2022/10/05 03:00:01;;;;;;;0.00;0.00;;;8.30;99.90;;;;;;5047455;28;20673;-62
2022/10/05 03:02:47;;;;;;;0.10;0.10;;;8.20;99.90;;;;;;5033740;28;20224;-62
2022/10/05 03:05:24;;;;;;;0.38;0.15;;;8.20;99.90;;;;;;5042344;28;20202;-62
2022/10/05 03:08:01;;;;;;;0.00;0.00;;;8.20;99.90;;;;;;5035125;28;20701;-62
2022/10/05 03:10:44;;;;;;;0.10;0.10;;;8.20;99.90;;;;;;5042692;28;20185;-62
2022/10/05 03:13:40;;;;;;;0.20;0.20;;;8.20;99.90;;;;;;5038863;28;20645;-62
2022/10/05 03:16:08;;;;;;;0.30;0.30;;;8.20;99.90;;;;;;5043632;28;20187;-62
2022/10/05 03:18:57;;;;;;;0.00;0.00;;;8.20;99.90;;;;;;5041459;28;20218;-62
2022/10/05 03:21:28;;;;;;;0.05;0.05;;;8.20;99.90;;;;;;5042771;28;20181;-62
2022/10/05 03:24:15;;;;;;;0.13;0.13;;;8.20;99.90;;;;;;5051384;28;20220;-62
2022/10/05 03:26:41;;;;;;;0.05;0.05;;;8.10;99.90;;;;;;5039803;28;20703;-62
2022/10/05 03:29:25;;;;;;;0.00;0.00;;;8.10;99.90;;;;;;5034920;28;20182;-61
2022/10/05 03:32:03;;;;;;;0.00;0.00;;;8.10;99.90;;;;;;5052636;28;20184;-62
2022/10/05 03:34:47;;;;;;;0.00;0.00;;;8.10;99.90;;;;;;5045840;28;20224;-62
2022/10/05 03:37:26;;;;;;;0.40;0.20;;;8.10;99.90;;;;;;5047445;28;20220;-62
2022/10/05 03:40:17;;;;;;;0.10;0.10;;;8.10;99.90;;;;;;5051017;28;20696;-62
2022/10/05 03:43:05;;;;;;;0.15;0.10;;;8.10;99.90;;;;;;5038580;28;20197;-62
2022/10/05 03:45:52;;;;;;;0.00;0.00;;;8.10;99.90;;;;;;5047837;28;20181;-62
2022/10/05 03:48:36;;;;;;;0.03;0.03;;;8.10;99.90;;;;;;5039660;28;20173;-62
2022/10/05 03:51:27;;;;;;;0.10;0.10;;;8.00;99.90;;;;;;5036615;28;20230;-62
2022/10/05 03:53:59;;;;;;;0.10;0.10;;;8.00;99.90;;;;;;5041372;28;20189;-63
2022/10/05 03:56:54;;;;;;;0.20;0.20;;;8.00;99.90;;;;;;5035597;28;20268;-63
2022/10/05 03:59:29;;;;;;;0.03;0.03;;;8.00;99.90;;;;;;5049638;28;20229;-62
2022/10/05 04:02:03;;;;;;;0.00;0.00;;;7.90;99.90;;;;;;5039463;28;20192;-63
2022/10/05 04:04:35;;;;;;;0.35;0.35;;;7.90;99.90;;;;;;5044756;28;20297;-61
2022/10/05 04:07:01;;;;;;;0.25;0.25;;;7.90;99.90;;;;;;5042407;28;20182;-61
2022/10/05 04:09:32;;;;;;;0.00;0.00;;;7.90;99.90;;;;;;5040316;28;20536;-62
2022/10/05 04:12:31;;;;;;;0.00;0.00;;;7.90;99.90;;;;;;5037007;28;20182;-60
2022/10/05 04:15:07;;;;;;;0.00;0.00;;;7.80;99.90;;;;;;5041489;28;20288;-60
2022/10/05 04:17:43;;;;;;;0.00;0.00;;;7.80;99.90;;;;;;5047752;28;20629;-59
2022/10/05 04:20:21;;;;;;;0.00;0.00;;;7.80;99.90;;;;;;5036190;28;20196;-57
2022/10/05 04:23:03;;;;;;;0.20;0.20;;;7.80;99.90;;;;;;5037381;28;20185;-60
2022/10/05 04:25:34;;;;;;;0.00;0.00;;;7.80;99.90;;;;;;5048537;28;20664;-59
2022/10/05 04:28:22;;;;;;;0.22;0.22;;;7.80;99.90;;;;;;5042522;28;20185;-63
2022/10/05 04:30:51;;;;;;;0.00;0.00;;;7.80;99.90;;;;;;5034474;28;20728;-61
2022/10/05 04:33:17;;;;;;;0.00;0.00;;;7.70;99.90;;;;;;5031621;28;20192;-62
2022/10/05 04:36:01;;;;;;;0.25;0.20;;;7.80;99.90;;;;;;5043959;28;20189;-59
2022/10/05 04:39:00;;;;;;;0.13;0.13;;;7.80;99.90;;;;;;5037723;28;20853;-59
2022/10/05 04:41:44;;;;;;;0.10;0.10;;;7.70;99.90;;;;;;5051617;28;20193;-57
2022/10/05 04:44:25;;;;;;;0.00;0.00;;;7.70;99.90;;;;;;5032764;28;20261;-60
2022/10/05 04:47:28;;;;;;;0.10;0.10;;;7.70;99.90;;;;;;5046285;28;20173;-60
2022/10/05 04:50:16;;;;;;;0.00;0.00;;;7.60;99.90;;;;;;5049621;28;20177;-60
2022/10/05 04:53:01;;;;;;;0.20;0.20;;;7.60;99.90;;;;;;5031727;28;20175;-60
2022/10/05 04:55:32;;;;;;;0.00;0.00;;;7.60;99.90;;;;;;5031716;28;20220;-60
2022/10/05 04:58:26;;;;;;;0.00;0.00;;;7.60;99.90;;;;;;5031405;28;20202;-60
2022/10/05 05:01:06;;;;;;;0.00;0.00;;;7.60;99.90;;;;;;5031653;28;20190;-60
2022/10/05 05:04:03;;;;;;;0.10;0.10;;;7.60;99.90;;;;;;5031276;28;20226;-60
2022/10/05 05:06:44;;;;;;;0.00;0.00;;;7.60;99.90;;;;;;5031598;28;20261;-60
2022/10/05 05:09:44;;;;;;;0.00;0.00;;;7.60;99.90;;;;;;5031661;28;20181;-60
2022/10/05 05:12:39;;;;;;;0.00;0.00;;;7.60;99.90;;;;;;5030071;28;20178;-59
2022/10/05 05:15:28;;;;;;;0.00;0.00;;;7.60;99.90;;;;;;5026786;28;20213;-59
2022/10/05 05:18:05;;;;;;;0.00;0.00;;;7.60;99.90;;;;;;5020638;28;20231;-60
2022/10/05 05:21:04;;;;;;;0.00;0.00;;;7.60;99.90;;;;;;5031543;28;20182;-60
2022/10/05 05:23:43;;;;;;;0.00;0.00;;;7.60;99.90;;;;;;5031704;28;20541;-60
2022/10/05 05:26:32;;;;;;;0.00;0.00;;;7.60;99.90;;;;;;5034605;28;20542;-60
2022/10/05 05:29:11;;;;;;;0.05;0.05;;;7.50;99.90;;;;;;5035426;28;20182;-60
2022/10/05 05:31:44;;;;;;;0.00;0.00;;;7.50;99.90;;;;;;5035535;28;20170;-60
2022/10/05 05:34:30;;;;;;;0.63;0.63;;;7.50;99.90;;;;;;5035198;28;20192;-59
2022/10/05 05:37:21;;;;;;;0.00;0.00;;;7.50;99.90;;;;;;5035087;28;20579;-60
2022/10/05 05:40:12;;;;;;;0.15;0.03;;;7.50;99.90;;;;;;5035269;28;20201;-60
2022/10/05 05:42:50;;;;;;;0.00;0.00;;;7.60;99.90;;;;;;5035128;28;20178;-60
2022/10/05 05:45:45;;;;;;;0.00;0.00;;;7.60;99.90;;;;;;5034924;28;20174;-59
2022/10/05 05:48:31;;;;;;;0.10;0.10;;;7.60;99.90;;;;;;5034422;28;20588;-60
2022/10/05 05:51:08;;;;;;;0.00;0.00;;;7.70;99.90;;;;;;5035123;28;20189;-60
2022/10/05 05:53:40;;;;;;;0.00;0.00;;;7.70;99.90;;;;;;5034729;28;20174;-59
2022/10/05 05:56:21;;;;;;;0.10;0.10;;;7.80;99.90;;;;;;5033548;28;20756;-60
2022/10/05 05:58:58;;;;;;;0.20;0.20;;;7.80;99.90;;;;;;5034898;28;20579;-60
2022/10/05 06:01:34;;;;;;;0.00;0.00;;;7.90;99.90;;;;;;5034819;28;20186;-60
2022/10/05 06:04:11;;;;;;;0.00;0.00;;;7.90;99.90;;;;;;5034665;28;20268;-60
2022/10/05 06:06:41;;;;;;;0.00;0.00;;;8.00;99.90;;;;;;5034722;28;20177;-60
2022/10/05 06:09:27;;;;;;;0.25;0.25;;;8.10;99.90;;;;;;5034731;28;20672;-60
2022/10/05 06:11:54;;;;;;;0.13;0.13;;;8.20;99.90;;;;;;5034743;28;20228;-60
2022/10/05 06:14:40;;;;;;;0.03;0.03;;;8.20;99.90;;;;;;5034479;28;20220;-60
2022/10/05 06:17:15;;;;;;;0.00;0.00;;;8.30;99.90;;;;;;5034615;28;20237;-60
2022/10/05 06:19:42;;;;;;;0.28;0.13;;;8.30;99.90;;;;;;5034283;28;20245;-60
2022/10/05 06:22:34;;;;;;;0.30;0.30;;;8.40;99.90;;;;;;5034457;28;20173;-60
2022/10/05 06:25:12;;;;;;;0.10;0.10;;;8.50;99.90;;;;;;5034590;28;20197;-60
2022/10/05 06:28:06;;;;;;;0.50;0.50;;;8.60;99.90;;;;;;5034463;28;20174;-60
2022/10/05 06:31:02;;;;;;;0.08;0.08;;;8.70;99.90;;;;;;5034337;28;20252;-60
2022/10/05 06:33:52;;;;;;;0.25;0.25;;;8.90;99.90;;;;;;5034270;28;20717;-60
2022/10/05 06:36:21;;;;;;;0.00;0.00;;;9.10;99.90;;;;;;5033655;28;20543;-60
2022/10/05 06:39:24;;;;;;;0.10;0.10;;;9.40;99.90;;;;;;5034275;28;20305;-60
2022/10/05 06:42:18;;;;;;;0.22;0.20;;;9.70;99.90;;;;;;5034180;28;20178;-60
2022/10/05 06:45:01;;;;;;;0.38;0.38;;;10.20;99.90;;;;;;5034106;28;20174;-60
2022/10/05 06:47:47;;;;;;;0.00;0.00;;;10.60;99.90;;;;;;5033990;28;20560;-60
2022/10/05 06:50:19;;;;;;;0.52;0.28;;;10.80;99.90;;;;;;5032631;28;20190;-60
2022/10/05 06:53:11;;;;;;;0.00;0.00;;;11.00;99.90;;;;;;5033871;28;20711;-60
2022/10/05 06:56:05;;;;;;;0.00;0.00;;;11.30;99.90;;;;;;5033597;28;20198;-60
2022/10/05 06:58:39;;;;;;;0.10;0.10;;;11.60;99.90;;;;;;5033675;28;20746;-60
2022/10/05 07:01:16;;;;;;;0.00;0.00;;;12.00;99.90;;;;;;5033834;28;20238;-60
2022/10/05 07:04:00;;;;;;;0.00;0.00;;;12.40;99.90;;;;;;5033602;28;20225;-60
2022/10/05 07:06:56;;;;;;;0.00;0.00;;;12.80;99.90;;;;;;5032166;28;20166;-60
2022/10/05 07:09:37;;;;;;;0.10;0.10;;;13.40;99.90;;;;;;5033489;28;20527;-60
2022/10/05 07:12:12;;;;;;;0.00;0.00;;;14.00;99.90;;;;;;5033542;28;20180;-60
2022/10/05 07:14:40;;;;;;;0.10;0.10;;;14.40;99.90;;;;;;5033426;28;20625;-60
2022/10/05 07:17:18;;;;;;;0.00;0.00;;;14.80;99.90;;;;;;5033293;28;20656;-60
2022/10/05 07:20:09;;;;;;;1.02;0.20;;;15.30;99.90;;;;;;5033347;28;20250;-60
2022/10/05 07:22:54;;;;;;;0.13;0.13;;;15.70;99.90;;;;;;5033282;28;20231;-60
2022/10/05 07:25:26;;;;;;;0.00;0.00;;;16.20;99.90;;;;;;5033347;28;20779;-61
2022/10/05 07:27:55;;;;;;;0.00;0.00;;;16.60;99.90;;;;;;5033525;28;20539;-61
2022/10/05 07:30:21;;;;;;;0.00;0.00;;;17.00;99.90;;;;;;5033238;28;20175;-61
2022/10/05 07:32:59;;;;;;;0.00;0.00;;;17.40;99.90;;;;;;5033383;28;20194;-61
2022/10/05 07:38:26;;;;;;;0.30;0.30;;;18.30;99.90;;;;;;5032982;28;20209;-61
2022/10/05 07:41:03;;;;;;;0.03;0.03;;;19.00;99.90;;;;;;5033258;28;20219;-61
2022/10/05 07:43:52;;;;;;;0.35;0.35;;;19.40;99.50;;;;;;5033059;28;20536;-61
2022/10/05 07:46:27;;;;;;;0.10;0.10;;;19.70;98.90;;;;;;5033007;28;20260;-61
2022/10/05 07:49:02;;;;;;;0.13;0.13;;;20.00;98.10;;;;;;5032145;28;20181;-61
2022/10/05 07:51:52;;;;;;;0.10;0.10;;;20.30;98.10;;;;;;5032759;28;20189;-61
2022/10/05 07:54:39;;;;;;;0.30;0.00;;;20.50;98.00;;;;;;5032827;28;20186;-61
2022/10/05 07:57:09;;;;;;;0.20;0.20;;;20.50;98.40;;;;;;5032818;28;20204;-61
2022/10/05 07:59:47;;;;;;;0.47;0.30;;;20.70;98.20;;;;;;5032627;28;20674;-61
2022/10/05 08:02:40;;;;;;;0.57;0.20;;;20.80;98.00;;;;;;5032718;28;20296;-61
2022/10/05 08:05:25;;;;;;;0.00;0.00;;;21.00;97.80;;;;;;5032538;28;20603;-61
2022/10/05 08:08:00;;;;;;;0.10;0.10;;;21.30;97.50;;;;;;5032530;28;20182;-62
2022/10/05 08:10:57;;;;;;;0.10;0.10;;;21.40;97.10;;;;;;5032566;28;20193;-61
2022/10/05 08:13:32;;;;;;;0.10;0.10;;;21.60;96.50;;;;;;5032609;28;20198;-61
2022/10/05 08:16:02;;;;;;;0.32;0.32;;;21.90;96.30;;;;;;5032418;28;20177;-61
2022/10/05 08:18:44;;;;;;;0.08;0.08;;;22.10;96.00;;;;;;5032358;28;20253;-61
2022/10/05 08:21:12;;;;;;;0.45;0.30;;;22.20;95.70;;;;;;5031253;28;20201;-62
2022/10/05 08:23:56;;;;;;;0.00;0.00;;;22.50;95.10;;;;;;5032490;28;20166;-62
2022/10/05 08:26:39;;;;;;;0.00;0.00;;;22.60;94.90;;;;;;5032342;28;20236;-62
2022/10/05 08:29:31;;;;;;;0.08;0.08;;;22.70;94.60;;;;;;5032308;28;20213;-62
2022/10/05 08:32:02;;;;;;;0.25;0.25;;;22.80;94.40;;;;;;5032228;28;20257;-61
2022/10/05 08:35:12;;;;;;;0.00;0.00;;;23.10;93.30;;;;;;5032155;28;20194;-62
2022/10/05 08:37:41;;;;;;;0.00;0.00;;;23.30;93.40;;;;;;5032112;28;20182;-62
2022/10/05 08:40:38;;;;;;;0.30;0.30;;;23.40;93.30;;;;;;5032149;28;20189;-62
2022/10/05 08:43:31;;;;;;;3.30;0.10;;;23.60;93.40;;;;;;5032252;28;20193;-62
2022/10/05 08:46:19;;;;;;;0.52;0.10;;;23.50;93.10;;;;;;5031997;28;20535;-61
2022/10/05 08:49:03;;;;;;;0.00;0.00;;;23.60;92.50;;;;;;5032093;28;20716;-62
2022/10/05 08:52:06;;;;;;;0.00;0.00;;;23.60;92.80;;;;;;5032155;28;20261;-61
2022/10/05 08:54:40;;;;;;;0.10;0.10;;;23.60;92.50;;;;;;5032065;28;20515;-61
2022/10/05 08:57:21;;;;;;;0.08;0.08;;;23.60;93.10;;;;;;5031873;28;20597;-61
2022/10/05 09:00:03;;;;;;;0.10;0.10;;;23.60;92.90;;;;;;5031775;28;20272;-61
2022/10/05 09:02:53;;;;;;;0.00;0.00;;;23.50;93.40;;;;;;5031975;28;20272;-62
2022/10/05 09:05:25;;;;;;;0.10;0.10;;;23.50;92.80;;;;;;5031720;28;20689;-62
2022/10/05 09:07:50;;;;;;;0.43;0.28;;;23.60;92.40;;;;;;5031991;28;20231;-61
2022/10/05 09:10:40;;;;;;;0.15;0.10;;;23.60;93.20;;;;;;5031832;28;20249;-61
2022/10/05 09:13:24;;;;;;;0.13;0.13;;;23.70;93.40;;;;;;5031799;28;20174;-61
2022/10/05 09:16:03;;;;;;;0.15;0.15;;;23.80;93.10;;;;;;5031870;28;20178;-62
2022/10/05 09:18:37;;;;;;;0.25;0.25;;;23.80;92.20;;;;;;5030336;28;20218;-62
2022/10/05 09:21:31;;;;;;;0.00;0.00;;;23.70;93.10;;;;;;5031756;28;20268;-61
2022/10/05 09:24:18;;;;;;;0.00;0.00;;;23.70;92.60;;;;;;5031634;28;20185;-61
2022/10/05 09:27:06;;;;;;;0.00;0.00;;;23.60;92.90;;;;;;5031830;28;20178;-61
2022/10/05 09:30:03;;;;;;;0.10;0.10;;;23.40;93.70;;;;;;5031751;28;20186;-61
2022/10/05 09:32:31;;;;;;;0.00;0.00;;;23.30;93.10;;;;;;5031553;28;20273;-61
2022/10/05 09:34:59;;;;;;;0.00;0.00;;;23.40;93.70;;;;;;5031601;28;20258;-61
2022/10/05 09:37:39;;;;;;;0.20;0.20;;;23.50;93.40;;;;;;5031757;28;20204;-61
2022/10/05 09:40:43;;;;;;;0.00;0.00;;;23.60;92.60;;;;;;5031640;28;20189;-62
2022/10/05 09:43:13;;;;;;;0.00;0.00;;;23.60;93.00;;;;;;5031523;28;20178;-61
2022/10/05 09:45:54;;;;;;;0.00;0.00;;;23.90;92.50;;;;;;5031664;28;20537;-62
2022/10/05 09:48:48;;;;;;;0.08;0.08;;;24.10;92.20;;;;;;5031490;28;20255;-61
2022/10/05 09:51:39;;;;;;;0.00;0.00;;;24.00;92.80;;;;;;5031344;28;20190;-61
2022/10/05 09:54:31;;;;;;;0.00;0.00;;;24.00;92.60;;;;;;5031454;28;20277;-61
2022/10/05 09:57:23;;;;;;;0.00;0.00;;;24.00;93.20;;;;;;5031387;28;20210;-62
2022/10/05 10:00:12;;;;;;;0.00;0.00;;;24.10;92.60;;;;;;5031435;28;20224;-62
2022/10/05 10:02:37;;;;;;;0.00;0.00;;;24.10;93.00;;;;;;5031356;28;20177;-62
2022/10/05 10:05:23;;;;;;;0.10;0.10;;;24.20;92.30;;;;;;5031211;28;20230;-62
2022/10/05 10:08:08;;;;;;;0.00;0.00;;;24.10;92.40;;;;;;5031237;28;20186;-62
2022/10/05 10:11:05;;;;;;;0.00;0.00;;;24.00;90.70;;;;;;5031939;28;20188;-61
2022/10/05 10:14:13;;;;;;;0.00;0.00;;;23.90;92.40;;;;;;5034962;28;20241;-61
2022/10/05 10:16:56;;;;;;;0.00;0.00;;;24.00;90.50;;;;;;5034858;28;20185;-61
2022/10/05 10:19:46;;;;;;;0.00;0.00;;;24.10;90.50;;;;;;5034622;28;20221;-61
2022/10/05 10:22:38;;;;;;;0.00;0.00;;;24.00;90.30;;;;;;5034712;28;20261;-61
2022/10/05 10:25:30;;;;;;;0.00;0.00;;;23.80;88.50;;;;;;5032003;28;20190;-62
2022/10/05 10:28:21;;;;;;;0.00;0.00;;;23.80;89.60;;;;;;5034613;28;20240;-61
2022/10/05 10:31:15;;;;;;;0.00;0.00;;;23.80;90.00;;;;;;5034590;28;20193;-62
2022/10/05 10:34:18;;;;;;;0.00;0.00;;;23.90;90.10;;;;;;5034657;28;20192;-61
2022/10/05 10:37:20;;;;;;;0.00;0.00;;;23.90;86.40;;;;;;5034515;28;20185;-62
2022/10/05 10:40:08;;;;;;;0.00;0.00;;;24.10;88.00;;;;;;5034505;28;20244;-62
2022/10/05 10:42:49;;;;;;;0.22;0.10;;;24.20;85.30;;;;;;5034294;28;20197;-62
2022/10/05 10:45:22;;;;;;;0.10;0.10;;;24.20;85.50;;;;;;5033024;28;20525;-61
2022/10/05 10:48:02;;;;;;;0.00;0.00;;;23.90;86.70;;;;;;5034363;28;20182;-61
2022/10/05 10:50:49;;;;;;;0.00;0.00;;;23.60;88.50;;;;;;5034142;28;20182;-62
2022/10/05 10:53:44;;;;;;;0.00;0.00;;;23.50;88.60;;;;;;5034033;28;20260;-61
2022/10/05 10:56:29;;;;;;;0.00;0.00;;;23.60;87.50;;;;;;5034241;28;20178;-61
2022/10/05 10:59:27;;;;;;;0.10;0.10;;;23.80;88.00;;;;;;5033909;28;20603;-61
2022/10/05 11:02:13;;;;;;;0.00;0.00;;;23.80;88.50;;;;;;5034145;28;20193;-61
2022/10/05 11:05:00;;;;;;;0.00;0.00;;;23.90;89.90;;;;;;5033721;28;20627;-61
2022/10/05 11:07:46;;;;;;;0.10;0.10;;;24.00;89.30;;;;;;5033678;28;20186;-61
2022/10/05 11:10:37;;;;;;;0.00;0.00;;;24.10;87.50;;;;;;5033700;28;20568;-61
2022/10/05 11:13:23;;;;;;;0.00;0.00;;;24.10;88.30;;;;;;5033897;28;20185;-61
2022/10/05 11:16:13;;;;;;;0.00;0.00;;;24.10;87.20;;;;;;5033827;28;20174;-61
2022/10/05 11:19:03;;;;;;;0.00;0.00;;;24.10;88.90;;;;;;5033627;28;20248;-62
2022/10/05 11:22:04;;;;;;;0.00;0.00;;;24.10;87.80;;;;;;5033267;28;20174;-61
2022/10/05 11:24:53;;;;;;;0.00;0.00;;;24.30;89.00;;;;;;5033485;28;20189;-61
2022/10/05 11:27:32;;;;;;;0.00;0.00;;;24.30;87.90;;;;;;5033382;28;20186;-62
2022/10/05 11:30:03;;;;;;;0.00;0.00;;;24.40;89.00;;;;;;5033343;28;20181;-62
2022/10/05 11:32:46;;;;;;;0.20;0.20;;;24.50;88.30;;;;;;5033229;28;20182;-62
2022/10/05 11:35:35;;;;;;;0.13;0.13;;;24.50;88.60;;;;;;5033291;28;20178;-62
2022/10/05 11:38:26;;;;;;;0.08;0.08;;;24.60;88.70;;;;;;5033133;28;20612;-61
2022/10/05 11:41:25;;;;;;;0.38;0.13;;;24.50;87.00;;;;;;5033270;28;20174;-62
2022/10/05 11:43:53;;;;;;;0.28;0.20;;;24.50;88.20;;;;;;5033032;28;20588;-62
2022/10/05 11:46:38;;;;;;;0.65;0.10;;;24.60;87.60;;;;;;5033026;28;20236;-62
2022/10/05 11:49:15;;;;;;;0.00;0.00;;;24.70;87.60;;;;;;5033119;28;20261;-62
2022/10/05 11:52:05;;;;;;;0.00;0.00;;;24.90;87.00;;;;;;5033064;28;20182;-62
2022/10/05 11:54:45;;;;;;;0.30;0.15;;;25.20;86.40;;;;;;5033027;28;20177;-62
2022/10/05 11:57:18;;;;;;;0.00;0.00;;;25.50;84.80;;;;;;5032928;28;20193;-62
2022/10/05 12:00:10;;;;;;;0.00;0.00;;;25.50;86.00;;;;;;5032884;28;20263;-62
2022/10/05 12:02:38;;;;;;;0.00;0.00;;;25.40;85.30;;;;;;5032631;28;20261;-62
2022/10/05 12:05:20;;;;;;;0.00;0.00;;;25.10;84.90;;;;;;5032655;28;20316;-62
2022/10/05 12:08:04;;;;;;;0.00;0.00;;;24.90;84.80;;;;;;5032674;28;20174;-62
2022/10/05 12:10:52;;;;;;;0.00;0.00;;;24.90;86.70;;;;;;5032823;28;20186;-62
2022/10/05 12:13:36;;;;;;;0.00;0.00;;;24.80;87.90;;;;;;5032614;28;20179;-62
2022/10/05 12:16:22;;;;;;;0.43;0.30;;;24.70;87.00;;;;;;5032574;28;20534;-62
2022/10/05 12:18:58;;;;;;;0.10;0.10;;;24.80;87.80;;;;;;5031975;28;20225;-62
2022/10/05 12:22:08;;;;;;;0.00;0.00;;;24.70;88.00;;;;;;5032388;28;20256;-62
2022/10/05 12:24:34;;;;;;;0.00;0.00;;;24.70;87.80;;;;;;5030743;28;20186;-61
2022/10/05 12:27:17;;;;;;;0.00;0.00;;;24.70;88.00;;;;;;5032373;28;20239;-61
2022/10/05 12:30:09;;;;;;;0.00;0.00;;;24.80;88.50;;;;;;5032430;28;20182;-62
2022/10/05 12:32:42;;;;;;;0.20;0.10;;;24.80;85.70;;;;;;5032272;28;20186;-61
2022/10/05 12:35:25;;;;;;;0.00;0.00;;;24.80;86.00;;;;;;5031809;28;20538;-61
2022/10/05 12:37:59;;;;;;;0.00;0.00;;;24.80;87.00;;;;;;5032106;28;20645;-61
2022/10/05 12:40:50;;;;;;;0.00;0.00;;;24.70;87.80;;;;;;5032034;28;20205;-61
2022/10/05 12:43:23;;;;;;;0.00;0.00;;;24.70;88.10;;;;;;5031969;28;20190;-61
2022/10/05 12:46:20;;;;;;;0.10;0.10;;;24.80;87.90;;;;;;5031891;28;20530;-62
2022/10/05 12:49:01;;;;;;;0.00;0.00;;;24.80;86.70;;;;;;5032212;28;20212;-61
2022/10/05 12:51:49;;;;;;;0.00;0.00;;;24.70;88.10;;;;;;5031975;28;20627;-61
2022/10/05 12:54:35;;;;;;;0.00;0.00;;;24.70;88.40;;;;;;5032156;28;20208;-61
2022/10/05 12:57:16;;;;;;;0.03;0.03;;;24.70;87.80;;;;;;5032055;28;20583;-61
2022/10/05 13:00:07;;;;;;;0.00;0.00;;;24.70;87.20;;;;;;5032078;28;20217;-61
2022/10/05 13:02:42;;;;;;;0.00;0.00;;;24.70;88.90;;;;;;5031931;28;20716;-62
2022/10/05 13:05:08;;;;;;;0.03;0.03;;;24.50;89.10;;;;;;5031747;28;20248;-61
2022/10/05 13:07:45;;;;;;;0.60;0.00;;;24.40;89.40;;;;;;5031756;28;20178;-62
2022/10/05 13:10:21;;;;;;;0.85;0.47;;;24.40;90.00;;;;;;5031841;28;20272;-60
2022/10/05 13:13:23;;;;;;;0.00;0.00;;;24.30;90.30;;;;;;5031767;28;20539;-61
2022/10/05 13:16:13;;;;;;;0.00;0.00;;;24.40;90.60;;;;;;5031826;28;20235;-61
2022/10/05 13:18:51;;;;;;;0.00;0.00;;;24.40;90.00;;;;;;5031658;28;20751;-62
2022/10/05 13:21:43;;;;;;;0.00;0.00;;;24.40;90.00;;;;;;5031601;28;20637;-61
2022/10/05 13:24:22;;;;;;;0.00;0.00;;;24.40;90.40;;;;;;5031717;28;20239;-61
2022/10/05 13:26:53;;;;;;;0.00;0.00;;;24.30;90.00;;;;;;5031664;28;20209;-61
2022/10/05 13:29:29;;;;;;;0.00;0.00;;;24.20;90.40;;;;;;5031542;28;20189;-61
2022/10/05 13:31:59;;;;;;;0.10;0.10;;;24.20;90.80;;;;;;5031451;28;20553;-61
2022/10/05 13:34:36;;;;;;;0.00;0.00;;;24.20;90.80;;;;;;5031446;28;20193;-61
2022/10/05 13:37:18;;;;;;;0.00;0.00;;;24.20;90.20;;;;;;5031571;28;20524;-61
2022/10/05 13:39:55;;;;;;;0.00;0.00;;;24.20;90.80;;;;;;5031592;28;20669;-61
2022/10/05 13:42:29;;;;;;;0.00;0.00;;;24.20;90.90;;;;;;5031430;28;20628;-61
2022/10/05 13:45:20;;;;;;;0.00;0.00;;;24.10;90.90;;;;;;5031410;28;20630;-61
2022/10/05 13:48:17;;;;;;;0.00;0.00;;;24.10;91.20;;;;;;5035349;28;20179;-62
2022/10/05 13:51:06;;;;;;;0.00;0.00;;;24.00;91.30;;;;;;5035309;28;20189;-61
2022/10/05 13:54:06;;;;;;;0.00;0.00;;;23.90;90.90;;;;;;5035284;28;20212;-61
2022/10/05 13:56:36;;;;;;;0.00;0.00;;;23.80;91.20;;;;;;5034972;28;20253;-61
2022/10/05 13:59:26;;;;;;;0.00;0.00;;;23.80;92.10;;;;;;5034998;28;20287;-61
2022/10/05 14:01:59;;;;;;;0.03;0.03;;;23.80;92.30;;;;;;5035238;28;20187;-62
2022/10/05 14:04:41;;;;;;;0.00;0.00;;;23.70;92.10;;;;;;5034779;28;20230;-62
2022/10/05 14:07:24;;;;;;;0.00;0.00;;;23.60;92.20;;;;;;5034758;28;20213;-62
2022/10/05 14:09:50;;;;;;;0.10;0.10;;;23.60;92.30;;;;;;5034909;28;20205;-62
2022/10/05 14:12:21;;;;;;;0.00;0.00;;;23.60;92.30;;;;;;5034629;28;20202;-61
2022/10/05 14:14:46;;;;;;;0.00;0.00;;;23.60;92.70;;;;;;5034760;28;20673;-61